sensor_id;sensor_type;location;lat;lon;timestamp;P1;durP1;ratioP1;P2;durP2;ratioP2
9248;SDS011;4660;41.768;26.198;2023-05-21T00:00:14;9.50;;;5.53;;
9248;SDS011;4660;41.768;26.198;2023-05-21T00:02:40;9.80;;;5.45;;
9248;SDS011;4660;41.768;26.198;2023-05-21T00:05:06;8.30;;;4.90;;
9248;SDS011;4660;41.768;26.198;2023-05-21T00:07:37;9.37;;;5.50;;
9248;SDS011;4660;41.768;26.198;2023-05-21T00:10:03;6.27;;;5.00;;
9248;SDS011;4660;41.768;26.198;2023-05-21T00:12:28;6.88;;;5.28;;
9248;SDS011;4660;41.768;26.198;2023-05-21T00:14:56;12.20;;;5.37;;
9248;SDS011;4660;41.768;26.198;2023-05-21T00:17:22;9.87;;;4.97;;
9248;SDS011;4660;41.768;26.198;2023-05-21T00:19:47;10.93;;;5.40;;
9248;SDS011;4660;41.768;26.198;2023-05-21T00:22:14;7.37;;;5.30;;
9248;SDS011;4660;41.768;26.198;2023-05-21T00:24:40;9.63;;;5.10;;
9248;SDS011;4660;41.768;26.198;2023-05-21T00:27:05;11.43;;;4.50;;
9248;SDS011;4660;41.768;26.198;2023-05-21T00:29:31;9.63;;;5.47;;
9248;SDS011;4660;41.768;26.198;2023-05-21T00:31:56;5.87;;;5.20;;
9248;SDS011;4660;41.768;26.198;2023-05-21T00:34:22;8.73;;;6.10;;
9248;SDS011;4660;41.768;26.198;2023-05-21T00:36:47;5.83;;;5.13;;
9248;SDS011;4660;41.768;26.198;2023-05-21T00:39:13;8.00;;;5.67;;
9248;SDS011;4660;41.768;26.198;2023-05-21T00:41:38;10.63;;;6.13;;
9248;SDS011;4660;41.768;26.198;2023-05-21T00:44:04;10.17;;;5.80;;
9248;SDS011;4660;41.768;26.198;2023-05-21T00:46:31;10.73;;;6.03;;
9248;SDS011;4660;41.768;26.198;2023-05-21T00:48:56;8.27;;;5.65;;
9248;SDS011;4660;41.768;26.198;2023-05-21T00:51:23;12.73;;;5.90;;
9248;SDS011;4660;41.768;26.198;2023-05-21T00:53:50;11.47;;;5.60;;
9248;SDS011;4660;41.768;26.198;2023-05-21T00:56:19;9.60;;;5.33;;
9248;SDS011;4660;41.768;26.198;2023-05-21T00:58:46;10.40;;;5.40;;
9248;SDS011;4660;41.768;26.198;2023-05-21T01:01:12;9.73;;;5.77;;
9248;SDS011;4660;41.768;26.198;2023-05-21T01:03:38;7.17;;;5.33;;
9248;SDS011;4660;41.768;26.198;2023-05-21T01:06:05;6.20;;;5.57;;
9248;SDS011;4660;41.768;26.198;2023-05-21T01:08:32;9.98;;;5.65;;
9248;SDS011;4660;41.768;26.198;2023-05-21T01:11:02;9.30;;;5.50;;
9248;SDS011;4660;41.768;26.198;2023-05-21T01:13:30;14.43;;;6.37;;
9248;SDS011;4660;41.768;26.198;2023-05-21T01:15:58;8.83;;;6.23;;
9248;SDS011;4660;41.768;26.198;2023-05-21T01:18:25;16.37;;;6.90;;
9248;SDS011;4660;41.768;26.198;2023-05-21T01:20:51;10.27;;;6.72;;
9248;SDS011;4660;41.768;26.198;2023-05-21T01:23:17;12.87;;;6.40;;
9248;SDS011;4660;41.768;26.198;2023-05-21T01:25:45;7.67;;;6.83;;
9248;SDS011;4660;41.768;26.198;2023-05-21T01:28:11;11.37;;;6.70;;
9248;SDS011;4660;41.768;26.198;2023-05-21T01:30:38;7.17;;;6.40;;
9248;SDS011;4660;41.768;26.198;2023-05-21T01:35:49;7.87;;;6.17;;
9248;SDS011;4660;41.768;26.198;2023-05-21T01:38:22;7.37;;;6.53;;
9248;SDS011;4660;41.768;26.198;2023-05-21T01:43:28;9.87;;;6.97;;
9248;SDS011;4660;41.768;26.198;2023-05-21T01:45:56;11.17;;;6.43;;
9248;SDS011;4660;41.768;26.198;2023-05-21T01:48:27;9.70;;;5.90;;
9248;SDS011;4660;41.768;26.198;2023-05-21T01:50:54;10.63;;;6.53;;
9248;SDS011;4660;41.768;26.198;2023-05-21T01:53:21;11.33;;;6.37;;
9248;SDS011;4660;41.768;26.198;2023-05-21T01:55:47;10.67;;;5.57;;
9248;SDS011;4660;41.768;26.198;2023-05-21T01:58:13;12.87;;;6.23;;
9248;SDS011;4660;41.768;26.198;2023-05-21T02:00:43;8.67;;;4.87;;
9248;SDS011;4660;41.768;26.198;2023-05-21T02:03:09;7.90;;;6.07;;
9248;SDS011;4660;41.768;26.198;2023-05-21T02:05:35;6.50;;;5.85;;
9248;SDS011;4660;41.768;26.198;2023-05-21T02:08:01;10.50;;;5.43;;
9248;SDS011;4660;41.768;26.198;2023-05-21T02:10:27;7.50;;;6.33;;
9248;SDS011;4660;41.768;26.198;2023-05-21T02:12:52;11.40;;;6.00;;
9248;SDS011;4660;41.768;26.198;2023-05-21T02:15:18;8.40;;;5.70;;
9248;SDS011;4660;41.768;26.198;2023-05-21T02:17:44;10.90;;;5.87;;
9248;SDS011;4660;41.768;26.198;2023-05-21T02:20:10;8.90;;;6.37;;
9248;SDS011;4660;41.768;26.198;2023-05-21T02:22:43;10.48;;;6.43;;
9248;SDS011;4660;41.768;26.198;2023-05-21T02:25:11;8.60;;;6.00;;
9248;SDS011;4660;41.768;26.198;2023-05-21T02:27:38;9.18;;;6.35;;
9248;SDS011;4660;41.768;26.198;2023-05-21T02:30:05;7.30;;;6.50;;
9248;SDS011;4660;41.768;26.198;2023-05-21T02:32:32;9.10;;;6.50;;
9248;SDS011;4660;41.768;26.198;2023-05-21T02:34:59;13.43;;;6.50;;
9248;SDS011;4660;41.768;26.198;2023-05-21T02:37:25;8.67;;;6.47;;
9248;SDS011;4660;41.768;26.198;2023-05-21T02:39:54;8.13;;;5.80;;
9248;SDS011;4660;41.768;26.198;2023-05-21T02:42:21;6.53;;;5.77;;
9248;SDS011;4660;41.768;26.198;2023-05-21T02:44:47;7.53;;;5.90;;
9248;SDS011;4660;41.768;26.198;2023-05-21T02:47:14;9.50;;;5.67;;
9248;SDS011;4660;41.768;26.198;2023-05-21T02:49:39;11.57;;;6.13;;
9248;SDS011;4660;41.768;26.198;2023-05-21T02:52:05;7.40;;;5.80;;
9248;SDS011;4660;41.768;26.198;2023-05-21T02:54:31;7.30;;;5.97;;
9248;SDS011;4660;41.768;26.198;2023-05-21T02:56:56;6.97;;;5.40;;
9248;SDS011;4660;41.768;26.198;2023-05-21T02:59:22;8.07;;;5.20;;
9248;SDS011;4660;41.768;26.198;2023-05-21T03:01:48;9.07;;;5.63;;
9248;SDS011;4660;41.768;26.198;2023-05-21T03:04:13;6.57;;;4.90;;
9248;SDS011;4660;41.768;26.198;2023-05-21T03:06:39;8.67;;;5.57;;
9248;SDS011;4660;41.768;26.198;2023-05-21T03:09:04;12.63;;;5.50;;
9248;SDS011;4660;41.768;26.198;2023-05-21T03:11:30;10.13;;;5.97;;
9248;SDS011;4660;41.768;26.198;2023-05-21T03:13:56;6.10;;;5.37;;
9248;SDS011;4660;41.768;26.198;2023-05-21T03:16:21;9.27;;;4.60;;
9248;SDS011;4660;41.768;26.198;2023-05-21T03:18:47;7.57;;;6.07;;
9248;SDS011;4660;41.768;26.198;2023-05-21T03:21:13;8.80;;;5.93;;
9248;SDS011;4660;41.768;26.198;2023-05-21T03:23:39;11.10;;;6.70;;
9248;SDS011;4660;41.768;26.198;2023-05-21T03:26:06;8.67;;;6.10;;
9248;SDS011;4660;41.768;26.198;2023-05-21T03:28:32;9.57;;;5.73;;
9248;SDS011;4660;41.768;26.198;2023-05-21T03:30:57;8.50;;;5.87;;
9248;SDS011;4660;41.768;26.198;2023-05-21T03:33:23;9.17;;;6.60;;
9248;SDS011;4660;41.768;26.198;2023-05-21T03:35:49;6.63;;;5.77;;
9248;SDS011;4660;41.768;26.198;2023-05-21T03:38:14;8.77;;;6.00;;
9248;SDS011;4660;41.768;26.198;2023-05-21T03:40:40;8.97;;;6.40;;
9248;SDS011;4660;41.768;26.198;2023-05-21T03:43:05;7.63;;;6.53;;
9248;SDS011;4660;41.768;26.198;2023-05-21T03:45:31;6.17;;;5.50;;
9248;SDS011;4660;41.768;26.198;2023-05-21T03:47:56;7.73;;;6.47;;
9248;SDS011;4660;41.768;26.198;2023-05-21T03:50:22;8.33;;;6.57;;
9248;SDS011;4660;41.768;26.198;2023-05-21T03:52:47;9.27;;;6.17;;
9248;SDS011;4660;41.768;26.198;2023-05-21T03:55:13;7.77;;;6.17;;
9248;SDS011;4660;41.768;26.198;2023-05-21T03:57:40;12.40;;;6.03;;
9248;SDS011;4660;41.768;26.198;2023-05-21T04:00:06;9.30;;;6.50;;
9248;SDS011;4660;41.768;26.198;2023-05-21T04:02:33;9.33;;;5.97;;
9248;SDS011;4660;41.768;26.198;2023-05-21T04:04:58;8.57;;;5.87;;
9248;SDS011;4660;41.768;26.198;2023-05-21T04:07:24;8.33;;;5.67;;
9248;SDS011;4660;41.768;26.198;2023-05-21T04:09:51;6.83;;;5.70;;
9248;SDS011;4660;41.768;26.198;2023-05-21T04:12:17;8.43;;;5.83;;
9248;SDS011;4660;41.768;26.198;2023-05-21T04:14:44;9.70;;;6.55;;
9248;SDS011;4660;41.768;26.198;2023-05-21T04:17:10;10.15;;;5.60;;
9248;SDS011;4660;41.768;26.198;2023-05-21T04:19:39;10.98;;;5.88;;
9248;SDS011;4660;41.768;26.198;2023-05-21T04:22:05;8.45;;;5.18;;
9248;SDS011;4660;41.768;26.198;2023-05-21T04:24:31;7.43;;;5.43;;
9248;SDS011;4660;41.768;26.198;2023-05-21T04:26:56;15.50;;;5.90;;
9248;SDS011;4660;41.768;26.198;2023-05-21T04:29:28;8.03;;;5.70;;
9248;SDS011;4660;41.768;26.198;2023-05-21T04:31:54;6.87;;;5.47;;
9248;SDS011;4660;41.768;26.198;2023-05-21T04:34:20;10.18;;;6.10;;
9248;SDS011;4660;41.768;26.198;2023-05-21T04:36:45;10.77;;;6.57;;
9248;SDS011;4660;41.768;26.198;2023-05-21T04:39:12;11.67;;;6.47;;
9248;SDS011;4660;41.768;26.198;2023-05-21T04:41:38;6.90;;;6.20;;
9248;SDS011;4660;41.768;26.198;2023-05-21T04:44:05;7.93;;;5.87;;
9248;SDS011;4660;41.768;26.198;2023-05-21T04:46:32;6.70;;;6.00;;
9248;SDS011;4660;41.768;26.198;2023-05-21T04:48:58;12.13;;;6.65;;
9248;SDS011;4660;41.768;26.198;2023-05-21T04:51:27;10.07;;;6.50;;
9248;SDS011;4660;41.768;26.198;2023-05-21T04:53:55;9.10;;;6.68;;
9248;SDS011;4660;41.768;26.198;2023-05-21T04:56:22;9.77;;;6.47;;
9248;SDS011;4660;41.768;26.198;2023-05-21T04:58:50;8.40;;;6.60;;
9248;SDS011;4660;41.768;26.198;2023-05-21T05:01:16;6.70;;;5.93;;
9248;SDS011;4660;41.768;26.198;2023-05-21T05:03:44;8.30;;;6.82;;
9248;SDS011;4660;41.768;26.198;2023-05-21T05:06:09;8.47;;;5.93;;
9248;SDS011;4660;41.768;26.198;2023-05-21T05:08:35;9.23;;;5.78;;
9248;SDS011;4660;41.768;26.198;2023-05-21T05:11:00;7.83;;;5.80;;
9248;SDS011;4660;41.768;26.198;2023-05-21T05:13:26;7.60;;;6.07;;
9248;SDS011;4660;41.768;26.198;2023-05-21T05:15:52;8.90;;;6.40;;
9248;SDS011;4660;41.768;26.198;2023-05-21T05:18:19;9.63;;;6.27;;
9248;SDS011;4660;41.768;26.198;2023-05-21T05:20:44;8.17;;;6.07;;
9248;SDS011;4660;41.768;26.198;2023-05-21T05:23:11;10.40;;;6.07;;
9248;SDS011;4660;41.768;26.198;2023-05-21T05:25:37;7.47;;;5.78;;
9248;SDS011;4660;41.768;26.198;2023-05-21T05:28:03;7.17;;;5.60;;
9248;SDS011;4660;41.768;26.198;2023-05-21T05:30:28;8.33;;;6.13;;
9248;SDS011;4660;41.768;26.198;2023-05-21T05:32:54;7.47;;;5.67;;
9248;SDS011;4660;41.768;26.198;2023-05-21T05:35:20;7.63;;;5.70;;
9248;SDS011;4660;41.768;26.198;2023-05-21T05:37:46;18.97;;;6.33;;
9248;SDS011;4660;41.768;26.198;2023-05-21T05:40:11;8.23;;;5.93;;
9248;SDS011;4660;41.768;26.198;2023-05-21T05:42:37;11.27;;;7.85;;
9248;SDS011;4660;41.768;26.198;2023-05-21T05:45:02;8.27;;;5.43;;
9248;SDS011;4660;41.768;26.198;2023-05-21T05:47:28;8.68;;;6.20;;
9248;SDS011;4660;41.768;26.198;2023-05-21T05:49:54;6.10;;;5.47;;
9248;SDS011;4660;41.768;26.198;2023-05-21T05:52:19;11.15;;;5.22;;
9248;SDS011;4660;41.768;26.198;2023-05-21T05:54:44;7.90;;;6.18;;
9248;SDS011;4660;41.768;26.198;2023-05-21T05:57:11;11.07;;;8.07;;
9248;SDS011;4660;41.768;26.198;2023-05-21T05:59:36;12.93;;;8.00;;
9248;SDS011;4660;41.768;26.198;2023-05-21T06:02:02;8.23;;;7.28;;
9248;SDS011;4660;41.768;26.198;2023-05-21T06:04:27;5.82;;;5.25;;
9248;SDS011;4660;41.768;26.198;2023-05-21T06:06:57;9.00;;;5.53;;
9248;SDS011;4660;41.768;26.198;2023-05-21T06:09:23;7.50;;;5.28;;
9248;SDS011;4660;41.768;26.198;2023-05-21T06:11:49;5.50;;;5.00;;
9248;SDS011;4660;41.768;26.198;2023-05-21T06:14:16;7.47;;;5.45;;
9248;SDS011;4660;41.768;26.198;2023-05-21T06:16:42;8.68;;;4.82;;
9248;SDS011;4660;41.768;26.198;2023-05-21T06:19:07;7.18;;;5.20;;
9248;SDS011;4660;41.768;26.198;2023-05-21T06:21:34;10.43;;;5.72;;
9248;SDS011;4660;41.768;26.198;2023-05-21T06:24:22;9.00;;;5.63;;
9248;SDS011;4660;41.768;26.198;2023-05-21T06:26:48;10.52;;;5.68;;
9248;SDS011;4660;41.768;26.198;2023-05-21T06:29:13;10.90;;;5.05;;
9248;SDS011;4660;41.768;26.198;2023-05-21T06:31:40;9.38;;;5.10;;
9248;SDS011;4660;41.768;26.198;2023-05-21T06:34:05;15.65;;;5.25;;
9248;SDS011;4660;41.768;26.198;2023-05-21T06:36:31;10.00;;;4.70;;
9248;SDS011;4660;41.768;26.198;2023-05-21T06:38:57;8.38;;;5.30;;
9248;SDS011;4660;41.768;26.198;2023-05-21T06:41:22;8.35;;;4.68;;
9248;SDS011;4660;41.768;26.198;2023-05-21T06:43:48;9.10;;;5.18;;
9248;SDS011;4660;41.768;26.198;2023-05-21T06:46:13;8.98;;;4.40;;
9248;SDS011;4660;41.768;26.198;2023-05-21T06:48:39;7.72;;;4.90;;
9248;SDS011;4660;41.768;26.198;2023-05-21T06:51:06;8.07;;;4.60;;
9248;SDS011;4660;41.768;26.198;2023-05-21T06:53:31;6.18;;;4.43;;
9248;SDS011;4660;41.768;26.198;2023-05-21T06:55:57;9.05;;;4.63;;
9248;SDS011;4660;41.768;26.198;2023-05-21T06:58:22;5.40;;;4.13;;
9248;SDS011;4660;41.768;26.198;2023-05-21T07:00:48;10.02;;;4.45;;
9248;SDS011;4660;41.768;26.198;2023-05-21T07:03:14;7.38;;;4.50;;
9248;SDS011;4660;41.768;26.198;2023-05-21T07:05:42;7.00;;;4.55;;
9248;SDS011;4660;41.768;26.198;2023-05-21T07:08:08;7.82;;;4.28;;
9248;SDS011;4660;41.768;26.198;2023-05-21T07:10:34;7.97;;;4.50;;
9248;SDS011;4660;41.768;26.198;2023-05-21T07:13:00;6.45;;;4.50;;
9248;SDS011;4660;41.768;26.198;2023-05-21T07:15:25;8.10;;;4.35;;
9248;SDS011;4660;41.768;26.198;2023-05-21T07:17:51;9.05;;;4.63;;
9248;SDS011;4660;41.768;26.198;2023-05-21T07:20:17;9.57;;;4.35;;
9248;SDS011;4660;41.768;26.198;2023-05-21T07:22:42;9.55;;;4.55;;
9248;SDS011;4660;41.768;26.198;2023-05-21T07:25:08;10.18;;;4.35;;
9248;SDS011;4660;41.768;26.198;2023-05-21T07:27:33;9.80;;;4.95;;
9248;SDS011;4660;41.768;26.198;2023-05-21T07:30:00;7.47;;;4.18;;
9248;SDS011;4660;41.768;26.198;2023-05-21T07:32:26;9.75;;;5.40;;
9248;SDS011;4660;41.768;26.198;2023-05-21T07:34:53;8.75;;;4.25;;
9248;SDS011;4660;41.768;26.198;2023-05-21T07:37:19;9.00;;;4.80;;
9248;SDS011;4660;41.768;26.198;2023-05-21T07:39:45;8.23;;;4.45;;
9248;SDS011;4660;41.768;26.198;2023-05-21T07:42:11;6.85;;;4.50;;
9248;SDS011;4660;41.768;26.198;2023-05-21T07:44:37;6.13;;;4.32;;
9248;SDS011;4660;41.768;26.198;2023-05-21T07:47:03;8.88;;;4.57;;
9248;SDS011;4660;41.768;26.198;2023-05-21T07:49:30;4.13;;;3.67;;
9248;SDS011;4660;41.768;26.198;2023-05-21T07:51:56;4.72;;;4.10;;
9248;SDS011;4660;41.768;26.198;2023-05-21T07:54:21;9.02;;;4.85;;
9248;SDS011;4660;41.768;26.198;2023-05-21T07:56:47;8.10;;;4.10;;
9248;SDS011;4660;41.768;26.198;2023-05-21T07:59:13;7.80;;;4.50;;
9248;SDS011;4660;41.768;26.198;2023-05-21T08:01:44;5.32;;;4.32;;
9248;SDS011;4660;41.768;26.198;2023-05-21T08:04:10;5.72;;;3.85;;
9248;SDS011;4660;41.768;26.198;2023-05-21T08:06:36;5.60;;;3.70;;
9248;SDS011;4660;41.768;26.198;2023-05-21T08:09:02;7.45;;;4.40;;
9248;SDS011;4660;41.768;26.198;2023-05-21T08:11:27;6.45;;;4.78;;
9248;SDS011;4660;41.768;26.198;2023-05-21T08:13:54;6.88;;;4.68;;
9248;SDS011;4660;41.768;26.198;2023-05-21T08:16:20;10.68;;;4.72;;
9248;SDS011;4660;41.768;26.198;2023-05-21T08:18:47;8.05;;;5.00;;
9248;SDS011;4660;41.768;26.198;2023-05-21T08:21:13;6.60;;;4.78;;
9248;SDS011;4660;41.768;26.198;2023-05-21T08:23:39;7.25;;;5.00;;
9248;SDS011;4660;41.768;26.198;2023-05-21T08:26:04;8.27;;;4.82;;
9248;SDS011;4660;41.768;26.198;2023-05-21T08:28:31;7.30;;;4.68;;
9248;SDS011;4660;41.768;26.198;2023-05-21T08:30:56;5.75;;;4.68;;
9248;SDS011;4660;41.768;26.198;2023-05-21T08:33:22;7.53;;;4.40;;
9248;SDS011;4660;41.768;26.198;2023-05-21T08:35:47;6.43;;;4.22;;
9248;SDS011;4660;41.768;26.198;2023-05-21T08:38:13;8.20;;;4.75;;
9248;SDS011;4660;41.768;26.198;2023-05-21T08:40:40;6.43;;;4.45;;
9248;SDS011;4660;41.768;26.198;2023-05-21T08:43:11;16.13;;;4.40;;
9248;SDS011;4660;41.768;26.198;2023-05-21T08:45:40;9.00;;;4.15;;
9248;SDS011;4660;41.768;26.198;2023-05-21T08:48:09;6.22;;;4.05;;
9248;SDS011;4660;41.768;26.198;2023-05-21T08:50:38;11.80;;;5.47;;
9248;SDS011;4660;41.768;26.198;2023-05-21T09:04:20;8.93;;;4.32;;
9248;SDS011;4660;41.768;26.198;2023-05-21T09:06:48;8.75;;;4.32;;
9248;SDS011;4660;41.768;26.198;2023-05-21T09:26:21;7.90;;;4.05;;
9248;SDS011;4660;41.768;26.198;2023-05-21T09:31:27;7.95;;;3.65;;
9248;SDS011;4660;41.768;26.198;2023-05-21T09:36:49;7.30;;;3.85;;
9248;SDS011;4660;41.768;26.198;2023-05-21T09:39:28;8.25;;;4.20;;
9248;SDS011;4660;41.768;26.198;2023-05-21T09:41:57;6.43;;;3.90;;
9248;SDS011;4660;41.768;26.198;2023-05-21T09:44:23;5.43;;;3.58;;
9248;SDS011;4660;41.768;26.198;2023-05-21T09:46:49;5.75;;;3.70;;
9248;SDS011;4660;41.768;26.198;2023-05-21T09:49:22;4.63;;;4.03;;
9248;SDS011;4660;41.768;26.198;2023-05-21T09:51:53;3.45;;;3.15;;
9248;SDS011;4660;41.768;26.198;2023-05-21T09:54:21;10.02;;;4.10;;
9248;SDS011;4660;41.768;26.198;2023-05-21T09:56:48;5.38;;;3.83;;
9248;SDS011;4660;41.768;26.198;2023-05-21T09:59:17;6.00;;;4.18;;
9248;SDS011;4660;41.768;26.198;2023-05-21T10:01:42;10.38;;;3.58;;
9248;SDS011;4660;41.768;26.198;2023-05-21T10:04:09;12.15;;;3.70;;
9248;SDS011;4660;41.768;26.198;2023-05-21T10:06:42;6.85;;;4.10;;
9248;SDS011;4660;41.768;26.198;2023-05-21T10:09:13;5.80;;;4.50;;
9248;SDS011;4660;41.768;26.198;2023-05-21T10:11:40;6.55;;;4.70;;
9248;SDS011;4660;41.768;26.198;2023-05-21T10:14:12;4.00;;;3.60;;
9248;SDS011;4660;41.768;26.198;2023-05-21T10:16:40;6.78;;;4.20;;
9248;SDS011;4660;41.768;26.198;2023-05-21T10:19:06;6.22;;;4.30;;
9248;SDS011;4660;41.768;26.198;2023-05-21T10:21:36;6.18;;;3.78;;
9248;SDS011;4660;41.768;26.198;2023-05-21T10:24:04;9.10;;;3.83;;
9248;SDS011;4660;41.768;26.198;2023-05-21T10:26:31;4.93;;;3.53;;
9248;SDS011;4660;41.768;26.198;2023-05-21T10:28:57;7.72;;;3.72;;
9248;SDS011;4660;41.768;26.198;2023-05-21T10:33:59;5.85;;;3.72;;
9248;SDS011;4660;41.768;26.198;2023-05-21T10:36:40;10.98;;;3.60;;
9248;SDS011;4660;41.768;26.198;2023-05-21T10:39:07;6.57;;;3.67;;
9248;SDS011;4660;41.768;26.198;2023-05-21T10:41:41;7.15;;;3.47;;
9248;SDS011;4660;41.768;26.198;2023-05-21T10:44:35;7.53;;;3.92;;
9248;SDS011;4660;41.768;26.198;2023-05-21T10:47:19;6.45;;;4.00;;
9248;SDS011;4660;41.768;26.198;2023-05-21T10:53:20;9.65;;;3.58;;
9248;SDS011;4660;41.768;26.198;2023-05-21T11:01:26;9.93;;;3.85;;
9248;SDS011;4660;41.768;26.198;2023-05-21T11:03:54;9.60;;;3.80;;
9248;SDS011;4660;41.768;26.198;2023-05-21T11:06:26;6.40;;;3.70;;
9248;SDS011;4660;41.768;26.198;2023-05-21T11:08:55;5.50;;;3.70;;
9248;SDS011;4660;41.768;26.198;2023-05-21T11:14:30;4.72;;;4.07;;
9248;SDS011;4660;41.768;26.198;2023-05-21T11:17:02;7.43;;;3.85;;
9248;SDS011;4660;41.768;26.198;2023-05-21T11:22:28;5.55;;;3.63;;
9248;SDS011;4660;41.768;26.198;2023-05-21T11:24:59;6.10;;;3.25;;
9248;SDS011;4660;41.768;26.198;2023-05-21T11:27:51;10.77;;;3.30;;
9248;SDS011;4660;41.768;26.198;2023-05-21T11:38:18;6.80;;;4.22;;
9248;SDS011;4660;41.768;26.198;2023-05-21T11:40:54;4.65;;;3.70;;
9248;SDS011;4660;41.768;26.198;2023-05-21T11:43:20;7.55;;;3.80;;
9248;SDS011;4660;41.768;26.198;2023-05-21T11:45:46;8.45;;;3.33;;
9248;SDS011;4660;41.768;26.198;2023-05-21T11:48:12;12.32;;;3.75;;
9248;SDS011;4660;41.768;26.198;2023-05-21T11:50:38;8.00;;;3.90;;
9248;SDS011;4660;41.768;26.198;2023-05-21T11:53:06;16.42;;;5.32;;
9248;SDS011;4660;41.768;26.198;2023-05-21T11:55:36;12.93;;;5.03;;
9248;SDS011;4660;41.768;26.198;2023-05-21T11:58:04;9.45;;;4.57;;
9248;SDS011;4660;41.768;26.198;2023-05-21T12:00:37;6.28;;;4.13;;
9248;SDS011;4660;41.768;26.198;2023-05-21T12:03:05;5.40;;;4.45;;
9248;SDS011;4660;41.768;26.198;2023-05-21T12:05:46;10.52;;;4.50;;
9248;SDS011;4660;41.768;26.198;2023-05-21T12:08:22;6.35;;;5.07;;
9248;SDS011;4660;41.768;26.198;2023-05-21T12:10:58;5.60;;;4.65;;
9248;SDS011;4660;41.768;26.198;2023-05-21T12:15:59;8.45;;;5.05;;
9248;SDS011;4660;41.768;26.198;2023-05-21T12:18:30;10.02;;;5.40;;
9248;SDS011;4660;41.768;26.198;2023-05-21T12:20:56;5.82;;;4.80;;
9248;SDS011;4660;41.768;26.198;2023-05-21T12:23:25;7.53;;;5.38;;
9248;SDS011;4660;41.768;26.198;2023-05-21T12:25:51;6.82;;;4.57;;
9248;SDS011;4660;41.768;26.198;2023-05-21T12:28:20;14.57;;;6.07;;
9248;SDS011;4660;41.768;26.198;2023-05-21T12:30:48;6.28;;;4.63;;
9248;SDS011;4660;41.768;26.198;2023-05-21T12:33:17;8.00;;;4.03;;
9248;SDS011;4660;41.768;26.198;2023-05-21T12:35:46;7.85;;;4.07;;
9248;SDS011;4660;41.768;26.198;2023-05-21T12:38:14;6.35;;;3.90;;
9248;SDS011;4660;41.768;26.198;2023-05-21T12:40:40;5.72;;;3.88;;
9248;SDS011;4660;41.768;26.198;2023-05-21T12:43:07;5.97;;;3.70;;
9248;SDS011;4660;41.768;26.198;2023-05-21T12:45:33;9.23;;;3.72;;
9248;SDS011;4660;41.768;26.198;2023-05-21T12:48:01;6.40;;;3.60;;
9248;SDS011;4660;41.768;26.198;2023-05-21T12:50:27;7.32;;;4.03;;
9248;SDS011;4660;41.768;26.198;2023-05-21T12:52:53;5.85;;;3.50;;
9248;SDS011;4660;41.768;26.198;2023-05-21T12:55:20;8.25;;;4.03;;
9248;SDS011;4660;41.768;26.198;2023-05-21T12:57:47;6.20;;;4.93;;
9248;SDS011;4660;41.768;26.198;2023-05-21T13:02:50;9.18;;;4.63;;
9248;SDS011;4660;41.768;26.198;2023-05-21T13:05:16;8.32;;;4.28;;
9248;SDS011;4660;41.768;26.198;2023-05-21T13:07:43;5.75;;;4.15;;
9248;SDS011;4660;41.768;26.198;2023-05-21T13:10:15;6.30;;;3.88;;
9248;SDS011;4660;41.768;26.198;2023-05-21T13:12:41;6.47;;;3.90;;
9248;SDS011;4660;41.768;26.198;2023-05-21T13:15:07;5.10;;;3.88;;
9248;SDS011;4660;41.768;26.198;2023-05-21T13:17:34;8.43;;;3.75;;
9248;SDS011;4660;41.768;26.198;2023-05-21T13:22:36;6.30;;;3.80;;
9248;SDS011;4660;41.768;26.198;2023-05-21T13:25:09;6.88;;;4.15;;
9248;SDS011;4660;41.768;26.198;2023-05-21T13:27:50;5.32;;;3.97;;
9248;SDS011;4660;41.768;26.198;2023-05-21T13:30:20;5.65;;;3.67;;
9248;SDS011;4660;41.768;26.198;2023-05-21T13:32:52;5.80;;;3.85;;
9248;SDS011;4660;41.768;26.198;2023-05-21T13:35:40;5.63;;;4.10;;
9248;SDS011;4660;41.768;26.198;2023-05-21T13:38:09;5.55;;;4.00;;
9248;SDS011;4660;41.768;26.198;2023-05-21T13:40:57;5.22;;;3.65;;
9248;SDS011;4660;41.768;26.198;2023-05-21T13:43:23;7.20;;;4.15;;
9248;SDS011;4660;41.768;26.198;2023-05-21T13:45:53;7.10;;;3.83;;
9248;SDS011;4660;41.768;26.198;2023-05-21T13:48:19;8.63;;;4.28;;
9248;SDS011;4660;41.768;26.198;2023-05-21T13:50:44;5.28;;;3.72;;
9248;SDS011;4660;41.768;26.198;2023-05-21T13:53:12;4.78;;;4.25;;
9248;SDS011;4660;41.768;26.198;2023-05-21T13:55:39;6.57;;;3.72;;
9248;SDS011;4660;41.768;26.198;2023-05-21T14:00:40;4.80;;;3.35;;
9248;SDS011;4660;41.768;26.198;2023-05-21T14:03:54;8.18;;;4.50;;
9248;SDS011;4660;41.768;26.198;2023-05-21T14:12:18;9.15;;;3.92;;
9248;SDS011;4660;41.768;26.198;2023-05-21T14:32:59;7.55;;;4.13;;
9248;SDS011;4660;41.768;26.198;2023-05-21T14:35:30;5.10;;;3.72;;
9248;SDS011;4660;41.768;26.198;2023-05-21T14:51:01;8.93;;;3.67;;
9248;SDS011;4660;41.768;26.198;2023-05-21T14:53:30;10.05;;;3.47;;
9248;SDS011;4660;41.768;26.198;2023-05-21T14:55:58;5.70;;;3.67;;
9248;SDS011;4660;41.768;26.198;2023-05-21T14:58:28;4.97;;;3.05;;
9248;SDS011;4660;41.768;26.198;2023-05-21T15:01:53;7.68;;;3.00;;
9248;SDS011;4660;41.768;26.198;2023-05-21T15:05:04;7.28;;;3.33;;
9248;SDS011;4660;41.768;26.198;2023-05-21T15:07:30;6.50;;;4.15;;
9248;SDS011;4660;41.768;26.198;2023-05-21T15:10:00;4.38;;;3.42;;
9248;SDS011;4660;41.768;26.198;2023-05-21T15:12:26;9.32;;;3.80;;
9248;SDS011;4660;41.768;26.198;2023-05-21T15:14:53;9.57;;;3.90;;
9248;SDS011;4660;41.768;26.198;2023-05-21T15:22:32;4.53;;;2.63;;
9248;SDS011;4660;41.768;26.198;2023-05-21T15:27:45;4.18;;;3.08;;
9248;SDS011;4660;41.768;26.198;2023-05-21T15:32:47;9.10;;;3.60;;
9248;SDS011;4660;41.768;26.198;2023-05-21T15:48:14;7.63;;;3.70;;
9248;SDS011;4660;41.768;26.198;2023-05-21T15:50:50;3.83;;;3.35;;
9248;SDS011;4660;41.768;26.198;2023-05-21T15:53:16;5.47;;;3.38;;
9248;SDS011;4660;41.768;26.198;2023-05-21T15:55:42;6.82;;;3.20;;
9248;SDS011;4660;41.768;26.198;2023-05-21T15:58:09;6.43;;;3.47;;
9248;SDS011;4660;41.768;26.198;2023-05-21T16:00:38;3.70;;;3.15;;
9248;SDS011;4660;41.768;26.198;2023-05-21T16:03:04;6.70;;;3.15;;
9248;SDS011;4660;41.768;26.198;2023-05-21T16:05:30;7.22;;;3.58;;
9248;SDS011;4660;41.768;26.198;2023-05-21T16:07:56;4.13;;;2.70;;
9248;SDS011;4660;41.768;26.198;2023-05-21T16:10:21;5.90;;;3.05;;
9248;SDS011;4660;41.768;26.198;2023-05-21T16:12:50;8.13;;;3.55;;
9248;SDS011;4660;41.768;26.198;2023-05-21T16:15:16;4.50;;;3.47;;
9248;SDS011;4660;41.768;26.198;2023-05-21T16:17:42;4.45;;;3.00;;
9248;SDS011;4660;41.768;26.198;2023-05-21T16:20:08;9.10;;;3.15;;
9248;SDS011;4660;41.768;26.198;2023-05-21T16:22:34;4.65;;;3.33;;
9248;SDS011;4660;41.768;26.198;2023-05-21T16:25:01;5.30;;;3.58;;
9248;SDS011;4660;41.768;26.198;2023-05-21T16:27:33;7.95;;;4.07;;
9248;SDS011;4660;41.768;26.198;2023-05-21T16:30:25;8.38;;;4.03;;
9248;SDS011;4660;41.768;26.198;2023-05-21T16:32:56;10.38;;;4.38;;
9248;SDS011;4660;41.768;26.198;2023-05-21T16:35:22;11.65;;;6.20;;
9248;SDS011;4660;41.768;26.198;2023-05-21T16:37:48;6.97;;;4.45;;
9248;SDS011;4660;41.768;26.198;2023-05-21T16:40:14;12.85;;;5.90;;
9248;SDS011;4660;41.768;26.198;2023-05-21T16:42:40;9.77;;;4.88;;
9248;SDS011;4660;41.768;26.198;2023-05-21T16:45:07;6.95;;;4.28;;
9248;SDS011;4660;41.768;26.198;2023-05-21T16:47:34;9.32;;;4.22;;
9248;SDS011;4660;41.768;26.198;2023-05-21T16:50:02;6.85;;;4.00;;
9248;SDS011;4660;41.768;26.198;2023-05-21T16:52:32;8.40;;;5.60;;
9248;SDS011;4660;41.768;26.198;2023-05-21T16:54:58;8.50;;;5.55;;
9248;SDS011;4660;41.768;26.198;2023-05-21T16:57:24;9.63;;;4.30;;
9248;SDS011;4660;41.768;26.198;2023-05-21T16:59:49;7.05;;;3.63;;
9248;SDS011;4660;41.768;26.198;2023-05-21T17:02:15;6.82;;;3.63;;
9248;SDS011;4660;41.768;26.198;2023-05-21T17:04:42;10.10;;;3.10;;
9248;SDS011;4660;41.768;26.198;2023-05-21T17:07:08;8.80;;;3.65;;
9248;SDS011;4660;41.768;26.198;2023-05-21T17:09:34;7.05;;;2.95;;
9248;SDS011;4660;41.768;26.198;2023-05-21T17:12:00;7.20;;;3.05;;
9248;SDS011;4660;41.768;26.198;2023-05-21T17:14:26;6.55;;;2.92;;
9248;SDS011;4660;41.768;26.198;2023-05-21T17:16:53;4.97;;;3.13;;